Time;durP1;ratioP1;P1;durP2;ratioP2;P2;SDS_P1;SDS_P2;PMS_P1;PMS_P2;Temp;Humidity;BMP_temperature;BMP_pressure;BME280_temperature;BME280_humidity;BME280_pressure;Samples;Min_cycle;Max_cycle;Signal;HPM_P1;HPM_P2
2022/05/27 00:02:20;;;;;;;32.00;5.30;;;;;;;16.23;82.14;102099.16;6178915;23;20687;-64
2022/05/27 00:04:45;;;;;;;20.23;4.80;;;;;;;15.68;82.90;102105.56;6179255;23;20346;-62
2022/05/27 00:07:11;;;;;;;16.02;4.10;;;;;;;15.44;83.73;102110.78;6152306;23;20338;-63
2022/05/27 00:09:36;;;;;;;23.55;4.18;;;;;;;15.42;83.37;102116.16;6178278;23;20027;-63
2022/05/27 00:12:02;;;;;;;21.80;4.38;;;;;;;15.23;84.45;102115.91;6178856;23;20007;-62
2022/05/27 00:14:27;;;;;;;17.48;3.80;;;;;;;15.07;83.47;102108.44;6179667;23;19993;-62
2022/05/27 00:16:53;;;;;;;23.08;4.88;;;;;;;15.14;83.74;102117.94;6177909;23;20011;-62
2022/05/27 00:19:18;;;;;;;30.15;5.25;;;;;;;14.98;85.06;102098.13;6178637;23;20025;-63
2022/05/27 00:21:44;;;;;;;30.23;5.10;;;;;;;15.09;84.90;102098.66;6177164;23;20009;-62
2022/05/27 00:24:09;;;;;;;24.17;5.25;;;;;;;15.06;85.03;102101.41;6178404;23;20453;-63
2022/05/27 00:26:34;;;;;;;26.30;5.03;;;;;;;15.06;84.27;102100.53;6178049;23;20049;-61
2022/05/27 00:29:00;;;;;;;23.63;4.38;;;;;;;15.13;83.81;102102.94;6179247;23;20001;-62
2022/05/27 00:31:25;;;;;;;27.48;4.57;;;;;;;15.10;84.01;102096.84;6179282;23;20084;-62
2022/05/27 00:33:51;;;;;;;21.77;3.97;;;;;;;15.06;83.29;102095.22;6177670;23;20056;-62
2022/05/27 00:36:16;;;;;;;12.60;3.15;;;;;;;15.00;82.59;102099.81;6177812;23;20395;-62
2022/05/27 00:38:42;;;;;;;18.33;3.40;;;;;;;15.09;81.86;102087.16;6178075;23;20334;-60
2022/05/27 00:41:08;;;;;;;11.90;2.95;;;;;;;15.06;81.52;102095.22;6176178;23;20313;-61
2022/05/27 00:43:33;;;;;;;14.52;3.20;;;;;;;15.05;81.69;102096.16;6179084;23;20494;-61
2022/05/27 00:46:01;;;;;;;16.35;2.97;;;;;;;15.04;81.33;102092.63;6178425;23;20036;-60
2022/05/27 00:48:27;;;;;;;14.40;3.50;;;;;;;15.07;80.89;102087.22;6177408;23;20001;-61
2022/05/27 00:50:53;;;;;;;11.45;2.60;;;;;;;15.01;80.82;102096.25;6177560;23;20011;-63
2022/05/27 00:53:34;;;;;;;20.88;4.00;;;;;;;15.03;80.78;102088.22;6177447;23;20029;-62
2022/05/27 00:56:00;;;;;;;17.20;3.00;;;;;;;15.06;80.55;102089.91;6176636;23;20029;-61
2022/05/27 00:58:32;;;;;;;10.38;2.90;;;;;;;15.05;80.25;102083.72;6177936;23;20496;-60
2022/05/27 01:00:57;;;;;;;12.57;2.58;;;;;;;15.07;80.24;102084.56;6179572;23;20038;-61
2022/05/27 01:03:25;;;;;;;10.50;2.40;;;;;;;15.05;79.71;102089.03;6177702;23;20055;-61
2022/05/27 01:05:50;;;;;;;6.95;2.25;;;;;;;15.03;79.85;102077.63;6150822;23;20011;-59
2022/05/27 01:08:17;;;;;;;12.15;3.33;;;;;;;15.03;79.59;102081.13;6179104;23;20001;-60
2022/05/27 01:11:14;;;;;;;12.85;2.40;;;;;;;15.02;79.68;102063.47;6177251;23;20005;-61
2022/05/27 01:14:03;;;;;;;13.32;2.70;;;;;;;15.03;80.14;102069.66;6179183;23;20083;-60
2022/05/27 01:17:12;;;;;;;9.18;3.13;;;;;;;15.02;80.36;102084.69;6178216;23;20001;-63
2022/05/27 01:20:20;;;;;;;17.58;3.47;;;;;;;15.05;81.27;102082.88;6176209;23;20005;-61
2022/05/27 01:23:22;;;;;;;12.32;3.20;;;;;;;15.07;81.70;102073.06;6177527;23;20005;-61
2022/05/27 01:26:03;;;;;;;25.40;4.93;;;;;;;15.15;82.21;102076.34;6178327;23;20009;-61
2022/05/27 01:28:42;;;;;;;26.35;4.78;;;;;;;15.19;82.89;102085.06;6152604;23;20001;-61
2022/05/27 01:31:23;;;;;;;27.33;5.00;;;;;;;15.27;82.95;102083.88;6176974;23;20328;-62
2022/05/27 01:34:15;;;;;;;17.42;4.32;;;;;;;15.28;83.29;102084.75;6152867;23;20008;-61
2022/05/27 01:37:20;;;;;;;25.92;4.75;;;;;;;15.33;83.32;102088.13;6174996;23;20005;-61
2022/05/27 01:39:49;;;;;;;29.70;5.40;;;;;;;15.35;83.38;102080.97;6177885;23;20005;-61
2022/05/27 01:42:36;;;;;;;28.00;5.05;;;;;;;15.39;83.17;102076.44;6178057;23;20001;-63
2022/05/27 01:45:11;;;;;;;27.08;4.82;;;;;;;15.32;83.56;102072.25;6177557;23;20024;-65
2022/05/27 01:47:59;;;;;;;26.65;4.85;;;;;;;15.34;83.67;102065.97;6178196;23;20329;-61
2022/05/27 01:50:35;;;;;;;33.25;5.70;;;;;;;15.31;83.84;102063.41;6175035;23;20013;-62
2022/05/27 01:53:03;;;;;;;32.80;7.18;;;;;;;15.27;83.63;102062.63;6176727;23;20064;-64
2022/05/27 01:55:36;;;;;;;23.10;5.07;;;;;;;15.31;83.66;102066.06;6151539;23;20013;-63
2022/05/27 01:58:08;;;;;;;31.45;5.38;;;;;;;15.34;83.83;102070.38;6177571;23;20013;-63
2022/05/27 02:00:34;;;;;;;30.60;5.75;;;;;;;15.33;83.38;102066.88;6176034;23;20009;-65
2022/05/27 02:03:14;;;;;;;23.75;4.57;;;;;;;15.38;83.10;102062.25;6176863;23;20001;-61
2022/05/27 02:05:51;;;;;;;28.63;5.55;;;;;;;15.37;83.03;102060.53;6126795;23;20008;-63
2022/05/27 02:08:22;;;;;;;26.98;4.40;;;;;;;15.37;82.87;102068.50;6150800;23;20101;-61
2022/05/27 02:11:00;;;;;;;29.10;4.88;;;;;;;15.31;83.13;102051.91;6176255;23;20009;-61
2022/05/27 02:13:44;;;;;;;17.73;4.63;;;;;;;15.27;83.14;102062.63;6177104;23;20354;-61
2022/05/27 02:16:14;;;;;;;20.70;4.78;;;;;;;15.21;83.18;102051.38;6176909;23;20008;-62
2022/05/27 02:18:45;;;;;;;22.90;4.57;;;;;;;15.22;82.78;102053.09;6176139;23;20005;-61
2022/05/27 02:21:34;;;;;;;21.52;4.10;;;;;;;15.17;83.11;102061.22;6177291;23;20009;-61
2022/05/27 02:24:13;;;;;;;15.48;4.07;;;;;;;15.11;83.29;102061.44;6176449;23;20036;-64
2022/05/27 02:26:43;;;;;;;18.75;4.15;;;;;;;15.09;82.95;102064.16;6125801;23;20342;-63
2022/05/27 02:29:11;;;;;;;20.95;4.28;;;;;;;15.06;83.40;102066.91;6152478;23;20021;-61
2022/05/27 02:31:39;;;;;;;26.60;4.78;;;;;;;15.03;83.58;102067.00;6175140;23;20040;-64
2022/05/27 02:37:14;;;;;;;25.33;4.45;;;;;;;14.99;83.54;102060.06;6174776;23;20067;-63
2022/05/27 02:39:40;;;;;;;21.25;4.75;;;;;;;14.98;83.62;102061.84;6176677;23;20023;-62
2022/05/27 02:42:24;;;;;;;17.58;4.15;;;;;;;15.00;83.43;102067.97;6177356;23;20427;-62
2022/05/27 02:45:24;;;;;;;21.20;5.07;;;;;;;14.98;83.17;102066.28;6178398;23;20009;-63
2022/05/27 02:48:05;;;;;;;20.10;4.55;;;;;;;14.90;83.88;102069.19;6174999;23;20660;-63
2022/05/27 02:51:04;;;;;;;24.27;5.05;;;;;;;14.95;83.71;102064.59;6177134;23;20492;-62
2022/05/27 02:54:00;;;;;;;17.13;4.53;;;;;;;15.05;83.38;102059.84;6178846;23;20009;-66
2022/05/27 02:56:28;;;;;;;23.63;4.82;;;;;;;15.06;83.18;102066.91;6175176;23;20013;-64
2022/05/27 02:58:54;;;;;;;17.67;4.50;;;;;;;15.11;82.99;102062.28;6175809;23;20001;-63
2022/05/27 03:01:19;;;;;;;23.98;5.03;;;;;;;15.08;82.59;102070.34;6151923;23;20008;-62
2022/05/27 03:03:45;;;;;;;20.27;4.03;;;;;;;15.09;82.43;102073.88;6177413;23;20001;-61
2022/05/27 03:06:25;;;;;;;21.63;4.78;;;;;;;14.99;82.35;102068.03;6176661;23;20077;-60
2022/05/27 03:08:56;;;;;;;14.82;4.00;;;;;;;15.01;81.80;102056.44;6177946;23;20009;-60
2022/05/27 03:11:46;;;;;;;24.92;4.40;;;;;;;14.97;81.67;102064.53;6176663;23;20013;-60
2022/05/27 03:14:19;;;;;;;15.20;3.40;;;;;;;14.94;81.98;102067.28;6177591;23;20329;-60
2022/05/27 03:17:08;;;;;;;12.70;4.22;;;;;;;14.85;82.08;102065.81;6151726;23;20013;-61
2022/05/27 03:19:39;;;;;;;16.23;3.83;;;;;;;14.87;82.05;102064.00;6155558;23;20009;-61
2022/05/27 03:22:15;;;;;;;14.07;3.90;;;;;;;14.87;82.07;102069.28;6177097;23;20005;-62
2022/05/27 03:25:08;;;;;;;14.88;3.88;;;;;;;14.87;82.06;102064.00;6176304;23;20001;-61
2022/05/27 03:27:42;;;;;;;18.00;4.05;;;;;;;14.88;82.15;102065.72;6176379;23;20005;-62
2022/05/27 03:30:13;;;;;;;16.10;3.80;;;;;;;14.89;82.38;102068.31;6179739;23;20088;-62
2022/05/27 03:33:09;;;;;;;14.93;3.92;;;;;;;14.89;82.60;102078.06;6176182;23;20550;-62
2022/05/27 03:35:50;;;;;;;12.70;4.30;;;;;;;14.94;82.85;102070.81;6179081;23;20005;-61
2022/05/27 03:38:20;;;;;;;17.95;4.05;;;;;;;14.96;82.82;102068.97;6179107;23;20462;-63
2022/05/27 03:40:50;;;;;;;15.98;4.75;;;;;;;15.05;82.21;102070.44;6177893;23;20326;-60
2022/05/27 03:43:16;;;;;;;20.60;4.07;;;;;;;15.08;82.09;102073.00;6177267;23;20008;-64
2022/05/27 03:45:53;;;;;;;18.92;4.03;;;;;;;15.11;81.99;102072.91;6177758;23;20380;-61
2022/05/27 03:48:20;;;;;;;14.60;3.45;;;;;;;15.13;81.55;102087.00;6178321;23;20012;-62
2022/05/27 03:50:47;;;;;;;13.73;3.78;;;;;;;15.15;81.29;102079.00;6178215;23;20009;-64
2022/05/27 03:53:12;;;;;;;16.20;3.33;;;;;;;15.18;80.92;102080.66;6178569;23;20333;-63
2022/05/27 03:55:44;;;;;;;13.88;3.38;;;;;;;15.21;80.42;102085.88;6178961;23;20040;-62
2022/05/27 03:58:13;;;;;;;14.98;3.53;;;;;;;15.28;79.89;102084.75;6178523;23;20013;-62
2022/05/27 04:00:39;;;;;;;;;;;;;;;15.25;80.10;102084.84;6179481;23;20084;-61
2022/05/27 04:03:04;;;;;;;19.45;3.47;;;;;;;15.21;79.99;102081.44;6178719;23;19936;-63
2022/05/27 04:05:30;;;;;;;10.43;2.80;;;;;;;15.14;79.52;102087.88;6178714;23;20343;-62
2022/05/27 04:07:56;;;;;;;11.10;2.97;;;;;;;15.23;78.92;102089.38;6179464;23;20005;-62
2022/05/27 04:10:22;;;;;;;10.02;2.42;;;;;;;15.21;78.04;102091.19;6178786;23;20020;-62
2022/05/27 04:12:47;;;;;;;12.93;2.90;;;;;;;15.16;77.72;102092.22;6179054;23;20005;-63
2022/05/27 04:15:13;;;;;;;14.50;2.67;;;;;;;15.20;77.03;102090.31;6178697;23;20052;-61
2022/05/27 04:17:40;;;;;;;21.83;3.78;;;;;;;15.25;77.00;102090.16;6178734;23;20001;-60
2022/05/27 04:20:11;;;;;;;10.77;2.58;;;;;;;15.36;76.42;102090.69;6178283;23;20044;-62
2022/05/27 04:22:37;;;;;;;19.25;3.40;;;;;;;15.31;76.41;102089.97;6179441;23;20080;-61
2022/05/27 04:25:04;;;;;;;14.02;2.95;;;;;;;15.37;76.42;102088.88;6178302;23;20029;-61
2022/05/27 04:27:29;;;;;;;11.95;2.33;;;;;;;15.35;76.30;102094.25;6179751;23;20063;-61
2022/05/27 04:29:55;;;;;;;11.77;3.15;;;;;;;15.34;76.47;102089.84;6179178;23;20414;-61
2022/05/27 04:32:21;;;;;;;11.65;2.63;;;;;;;15.26;76.55;102089.25;6178122;23;20005;-62
2022/05/27 04:34:48;;;;;;;11.27;2.38;;;;;;;15.20;76.49;102092.13;6178789;23;20385;-63
2022/05/27 04:37:14;;;;;;;10.00;2.47;;;;;;;15.28;76.10;102090.06;6178612;23;20030;-63
2022/05/27 04:39:39;;;;;;;9.02;2.38;;;;;;;15.24;76.40;102099.94;6176736;23;19989;-61
2022/05/27 04:42:05;;;;;;;12.90;2.83;;;;;;;15.27;76.26;102101.59;6177207;23;20432;-61
2022/05/27 04:44:31;;;;;;;11.57;2.47;;;;;;;15.24;75.89;102104.38;6153220;23;20077;-63
2022/05/27 04:46:56;;;;;;;9.52;2.95;;;;;;;15.30;75.96;102104.16;6179590;23;20004;-63
2022/05/27 04:52:06;;;;;;;10.63;2.42;;;;;;;15.52;75.00;102103.41;6176597;23;20024;-63
2022/05/27 04:54:31;;;;;;;9.07;2.30;;;;;;;15.54;74.97;102102.44;6179110;23;20005;-62
2022/05/27 04:56:57;;;;;;;12.60;2.97;;;;;;;15.58;75.03;102103.22;6178178;23;20040;-62
2022/05/27 04:59:23;;;;;;;8.25;2.15;;;;;;;15.68;74.94;102109.06;6177333;23;20005;-62
2022/05/27 05:01:49;;;;;;;9.73;2.33;;;;;;;15.69;75.24;102112.59;6178832;23;20083;-62
2022/05/27 05:04:14;;;;;;;9.32;2.67;;;;;;;15.64;75.47;102104.78;6152189;23;20029;-62
2022/05/27 05:06:40;;;;;;;9.73;2.55;;;;;;;15.61;75.65;102119.03;6176481;23;20059;-64
2022/05/27 05:09:05;;;;;;;13.23;2.78;;;;;;;15.69;75.55;102120.56;6176509;23;20330;-63
2022/05/27 05:11:30;;;;;;;9.80;2.50;;;;;;;15.63;75.61;102124.31;6178491;23;20422;-60
2022/05/27 05:13:56;;;;;;;8.40;2.15;;;;;;;15.62;75.56;102125.22;6178712;23;20076;-62
2022/05/27 05:16:21;;;;;;;9.80;2.47;;;;;;;15.73;74.53;102122.19;6177355;23;20012;-63
2022/05/27 05:18:47;;;;;;;8.30;2.50;;;;;;;15.85;74.39;102121.75;6179091;23;20001;-63
2022/05/27 05:21:13;;;;;;;9.75;2.65;;;;;;;15.84;74.41;102133.31;6175294;23;20004;-64
2022/05/27 05:23:38;;;;;;;9.75;2.17;;;;;;;15.95;74.01;102116.13;6178744;23;20731;-64
2022/05/27 05:26:04;;;;;;;7.35;2.25;;;;;;;16.00;73.32;102119.50;6176438;23;20005;-62
2022/05/27 05:28:29;;;;;;;9.90;2.53;;;;;;;16.01;73.01;102126.53;6177760;23;20280;-63
2022/05/27 05:30:54;;;;;;;7.57;2.28;;;;;;;15.99;73.19;102136.38;6178383;23;20009;-60
2022/05/27 05:33:20;;;;;;;13.65;2.30;;;;;;;16.03;73.44;102145.97;6177936;23;20088;-62
2022/05/27 05:35:46;;;;;;;11.68;2.35;;;;;;;16.13;73.37;102147.38;6177634;23;20009;-62
2022/05/27 05:38:12;;;;;;;10.65;2.60;;;;;;;16.19;73.19;102135.63;6177981;23;20060;-63
2022/05/27 05:40:38;;;;;;;10.40;2.67;;;;;;;16.13;73.54;102146.47;6178401;23;20430;-63
2022/05/27 05:43:03;;;;;;;14.48;2.30;;;;;;;16.02;72.65;102149.56;6174655;23;20337;-61
2022/05/27 05:45:29;;;;;;;10.40;2.40;;;;;;;15.90;73.47;102153.50;6152159;23;20033;-64
2022/05/27 05:47:54;;;;;;;10.45;2.35;;;;;;;15.97;73.22;102156.81;6177189;23;20005;-61
2022/05/27 05:50:19;;;;;;;14.23;2.53;;;;;;;15.75;71.94;102162.88;6176518;23;20307;-61
2022/05/27 05:52:45;;;;;;;12.98;2.42;;;;;;;15.82;69.81;102152.88;6178265;23;20079;-62
2022/05/27 05:55:13;;;;;;;9.98;2.28;;;;;;;15.83;70.26;102149.31;6176350;23;20016;-64
2022/05/27 05:57:41;;;;;;;6.35;2.15;;;;;;;16.02;70.61;102158.38;6176689;23;20009;-63
2022/05/27 06:00:08;;;;;;;11.27;2.20;;;;;;;16.00;68.13;102162.03;6176579;23;20011;-61
2022/05/27 06:02:34;;;;;;;13.65;2.63;;;;;;;16.08;65.93;102157.31;6176571;23;20012;-62
2022/05/27 06:04:59;;;;;;;10.52;2.35;;;;;;;16.24;66.06;102159.41;6175979;23;20025;-61
2022/05/27 06:07:24;;;;;;;9.82;2.33;;;;;;;16.16;67.17;102162.31;6151650;23;20097;-62
2022/05/27 06:09:50;;;;;;;9.80;2.13;;;;;;;16.31;66.88;102162.72;6176676;23;20008;-62
2022/05/27 06:12:21;;;;;;;12.02;2.17;;;;;;;16.31;65.91;102166.22;6177672;23;20031;-62
2022/05/27 06:14:46;;;;;;;9.90;2.13;;;;;;;16.30;65.13;102164.50;6177927;23;20365;-66
2022/05/27 06:17:11;;;;;;;11.27;2.65;;;;;;;16.43;65.60;102170.22;6177677;23;20033;-63
2022/05/27 06:19:36;;;;;;;7.43;1.90;;;;;;;16.39;64.47;102166.81;6176506;23;20006;-62
2022/05/27 06:22:02;;;;;;;15.82;2.30;;;;;;;16.42;65.00;102168.47;6177839;23;20426;-61
2022/05/27 06:24:27;;;;;;;14.80;2.38;;;;;;;16.75;64.25;102167.25;6177944;23;20083;-61
2022/05/27 06:26:53;;;;;;;12.10;2.50;;;;;;;16.68;63.89;102172.81;6177822;23;20028;-63
2022/05/27 06:34:46;;;;;;;9.43;2.60;;;;;;;16.66;66.04;102195.09;6176744;23;20346;-63
2022/05/27 06:37:18;;;;;;;7.38;2.20;;;;;;;16.41;63.14;102193.38;6176232;23;20001;-62
2022/05/27 06:39:43;;;;;;;7.03;2.20;;;;;;;16.39;63.02;102195.19;6177697;23;20529;-62
2022/05/27 06:42:11;;;;;;;7.50;2.50;;;;;;;16.55;62.51;102195.47;6150691;23;20037;-62
2022/05/27 06:44:37;;;;;;;8.90;2.15;;;;;;;16.34;59.94;102203.34;6178532;23;20020;-61
2022/05/27 06:47:03;;;;;;;9.90;2.33;;;;;;;16.28;55.21;102204.44;6148763;23;20016;-63
2022/05/27 06:49:29;;;;;;;10.25;2.38;;;;;;;16.47;56.61;102197.56;6152151;23;20065;-62
2022/05/27 06:51:54;;;;;;;14.13;2.63;;;;;;;16.52;55.40;102203.56;6151771;23;20040;-61
2022/05/27 06:54:20;;;;;;;11.35;2.90;;;;;;;16.42;55.52;102217.25;6149828;23;20001;-60
2022/05/27 06:56:47;;;;;;;12.63;2.40;;;;;;;16.40;55.71;102210.22;6151141;23;20032;-63
2022/05/27 06:59:14;;;;;;;6.57;2.08;;;;;;;16.44;55.73;102211.88;6150480;23;20005;-60
2022/05/27 07:01:40;;;;;;;10.77;2.95;;;;;;;16.53;55.55;102227.47;6151745;23;20076;-63
2022/05/27 07:04:05;;;;;;;11.85;2.20;;;;;;;16.52;55.04;102207.13;6153574;23;20035;-61
2022/05/27 07:06:33;;;;;;;11.13;2.50;;;;;;;16.58;53.57;102210.50;6154615;23;20044;-65
2022/05/27 07:09:01;;;;;;;14.68;2.45;;;;;;;16.50;53.26;102222.25;6153057;23;20001;-62
2022/05/27 07:11:27;;;;;;;13.18;2.72;;;;;;;16.60;54.05;102208.63;6155373;23;20498;-61
2022/05/27 07:13:52;;;;;;;11.38;2.55;;;;;;;16.80;54.79;102218.53;6154029;23;20317;-62
2022/05/27 07:16:18;;;;;;;9.23;2.40;;;;;;;16.85;54.25;102223.66;6155303;23;20009;-62
2022/05/27 07:18:43;;;;;;;11.13;2.72;;;;;;;16.69;54.60;102216.25;6152839;23;20143;-62
2022/05/27 07:21:08;;;;;;;10.65;1.98;;;;;;;16.57;54.44;102228.22;6153003;23;20001;-62
2022/05/27 07:23:34;;;;;;;10.07;2.97;;;;;;;16.32;54.00;102236.25;6154572;23;20000;-63
2022/05/27 07:25:59;;;;;;;7.55;2.38;;;;;;;16.32;54.62;102226.50;6127574;23;20001;-62
2022/05/27 07:28:25;;;;;;;13.85;2.80;;;;;;;16.29;53.52;102240.75;6128048;23;20012;-61
2022/05/27 07:30:51;;;;;;;9.43;2.47;;;;;;;16.26;51.11;102245.31;6166876;23;20297;-61
2022/05/27 07:33:17;;;;;;;14.55;3.00;;;;;;;16.26;51.34;102242.66;6178144;23;20298;-63
2022/05/27 07:35:42;;;;;;;16.15;2.58;;;;;;;16.54;51.70;102241.66;6150984;23;20016;-61
2022/05/27 07:38:08;;;;;;;19.20;3.08;;;;;;;16.61;50.54;102227.19;6177171;23;20051;-62
2022/05/27 07:40:33;;;;;;;12.50;2.65;;;;;;;16.59;50.79;102237.03;6177794;23;20379;-60
2022/05/27 07:42:58;;;;;;;14.05;2.42;;;;;;;16.67;51.60;102226.97;6179573;23;20430;-60
2022/05/27 07:45:27;;;;;;;12.35;2.67;;;;;;;16.85;52.21;102235.16;6178588;23;20005;-62
2022/05/27 07:47:56;;;;;;;17.92;2.90;;;;;;;16.95;53.82;102235.69;6179187;23;20321;-61
2022/05/27 07:50:22;;;;;;;15.43;2.90;;;;;;;16.87;53.43;102233.34;6177193;23;20281;-61
2022/05/27 07:52:48;;;;;;;12.95;2.75;;;;;;;16.91;54.63;102240.25;6178420;23;20015;-59
2022/05/27 07:55:13;;;;;;;12.65;3.15;;;;;;;17.23;54.22;102247.06;6178890;23;20005;-63
2022/05/27 07:57:46;;;;;;;12.63;3.05;;;;;;;17.10;53.52;102250.22;6176889;23;20063;-62
2022/05/27 08:00:24;;;;;;;14.18;2.78;;;;;;;17.28;53.19;102245.97;6174664;23;20019;-61
2022/05/27 08:02:49;;;;;;;11.45;2.72;;;;;;;17.26;52.05;102258.50;6178629;23;20001;-61
2022/05/27 08:05:18;;;;;;;11.50;2.60;;;;;;;17.13;52.38;102247.44;6126018;23;20016;-60
2022/05/27 08:07:44;;;;;;;13.45;2.85;;;;;;;17.15;54.20;102264.22;6176635;23;20012;-60
2022/05/27 08:10:11;;;;;;;11.60;2.53;;;;;;;17.28;54.04;102259.28;6176720;23;20075;-65
2022/05/27 08:12:37;;;;;;;14.10;2.90;;;;;;;17.31;54.95;102245.00;6178330;23;20001;-63
2022/05/27 08:15:04;;;;;;;14.65;2.75;;;;;;;17.37;55.72;102243.88;6177656;23;20005;-62
2022/05/27 08:17:29;;;;;;;10.75;2.13;;;;;;;17.06;52.82;102259.22;6179374;23;20092;-62
2022/05/27 08:19:54;;;;;;;11.70;2.55;;;;;;;16.85;53.79;102245.81;6176675;23;20438;-63
2022/05/27 08:22:20;;;;;;;13.00;3.70;;;;;;;16.65;56.28;102242.09;6178540;23;20009;-61
2022/05/27 08:24:45;;;;;;;12.07;2.95;;;;;;;16.45;56.28;102250.84;6177924;23;20009;-63
2022/05/27 08:27:10;;;;;;;18.92;3.15;;;;;;;16.47;56.25;102253.44;6178415;23;20050;-62
2022/05/27 08:29:36;;;;;;;11.13;2.97;;;;;;;16.31;54.84;102259.31;6177629;23;20005;-60
2022/05/27 08:32:03;;;;;;;19.30;3.08;;;;;;;16.30;50.73;102268.22;6177826;23;20036;-65
2022/05/27 08:40:01;;;;;;;15.45;3.53;;;;;;;16.46;51.79;102275.66;6176948;23;20517;-63
2022/05/27 08:42:36;;;;;;;16.90;2.75;;;;;;;16.59;50.34;102284.94;6153886;23;20005;-63
2022/05/27 08:45:21;;;;;;;12.75;2.95;;;;;;;16.56;51.12;102277.06;6177436;23;20449;-61
2022/05/27 08:47:52;;;;;;;12.25;2.65;;;;;;;16.41;50.29;102289.97;6177411;23;20013;-61
2022/05/27 08:50:44;;;;;;;9.25;2.40;;;;;;;16.78;50.44;102292.22;6176654;23;20015;-64
2022/05/27 08:53:31;;;;;;;14.25;2.78;;;;;;;16.78;50.15;102286.91;6174807;23;20012;-61
2022/05/27 09:01:43;;;;;;;20.90;3.22;;;;;;;16.93;51.86;102289.00;6175030;23;20020;-63
2022/05/27 09:04:16;;;;;;;11.98;2.58;;;;;;;16.82;50.00;102298.31;6175705;23;20005;-62
2022/05/27 09:06:51;;;;;;;10.93;2.80;;;;;;;16.90;49.88;102294.44;6177222;23;20397;-62
2022/05/27 09:09:26;;;;;;;12.15;3.08;;;;;;;17.02;49.63;102302.88;6177929;23;20013;-65
2022/05/27 09:12:01;;;;;;;13.02;2.80;;;;;;;16.84;49.28;102309.75;6175723;23;20013;-64
2022/05/27 09:14:31;;;;;;;12.35;2.28;;;;;;;16.71;49.29;102306.69;6178371;23;20024;-62
2022/05/27 09:17:00;;;;;;;13.57;3.20;;;;;;;16.51;50.08;102310.94;6176072;23;20005;-64
2022/05/27 09:19:54;;;;;;;12.93;3.00;;;;;;;16.63;50.30;102331.78;6175285;23;20441;-63
2022/05/27 09:22:34;;;;;;;11.38;2.60;;;;;;;16.83;49.92;102306.25;6175386;23;20012;-63
2022/05/27 09:25:18;;;;;;;10.98;2.78;;;;;;;16.98;50.14;102304.78;6177368;23;20008;-64
2022/05/27 09:28:11;;;;;;;16.85;3.13;;;;;;;17.00;51.00;102318.03;6150554;23;20001;-64
2022/05/27 09:30:37;;;;;;;13.27;3.15;;;;;;;16.88;50.44;102311.38;6150274;23;20060;-63
2022/05/27 09:33:06;;;;;;;13.68;3.00;;;;;;;17.02;51.11;102326.84;6177558;23;20005;-63
2022/05/27 09:35:36;;;;;;;14.77;3.20;;;;;;;17.05;50.42;102342.72;6176208;23;20075;-62
2022/05/27 09:38:05;;;;;;;14.23;3.15;;;;;;;16.77;50.54;102309.97;6177279;23;20322;-63
2022/05/27 09:40:47;;;;;;;14.45;3.40;;;;;;;17.07;50.60;102324.03;6178395;23;20072;-64
2022/05/27 09:43:21;;;;;;;16.00;3.10;;;;;;;17.36;49.39;102301.59;6174675;23;20005;-61
2022/05/27 09:45:55;;;;;;;18.42;2.88;;;;;;;17.57;49.97;102314.16;6152572;23;20045;-63
2022/05/27 09:48:21;;;;;;;20.98;3.05;;;;;;;17.29;49.60;102321.44;6175624;23;20015;-61
2022/05/27 09:50:48;;;;;;;11.20;3.03;;;;;;;17.50;49.13;102332.16;6177242;23;20330;-63
2022/05/27 09:53:17;;;;;;;15.88;3.83;;;;;;;17.66;49.04;102324.41;6175506;23;20021;-62
2022/05/27 09:55:48;;;;;;;;;;;;;;;17.56;51.19;102331.94;6176148;23;20449;-62
2022/05/27 09:58:13;;;;;;;22.42;3.90;;;;;;;17.83;51.68;102325.53;6177662;23;19984;-64
2022/05/27 10:00:41;;;;;;;19.42;3.72;;;;;;;17.75;50.71;102320.50;6177568;23;20028;-61
2022/05/27 10:03:23;;;;;;;14.80;3.92;;;;;;;17.62;49.87;102320.16;6176254;23;20330;-60
2022/05/27 10:06:04;;;;;;;16.70;3.67;;;;;;;17.42;51.33;102335.13;6175699;23;20023;-63
2022/05/27 10:08:32;;;;;;;15.02;3.28;;;;;;;17.05;53.00;102343.59;6178739;23;20001;-61
2022/05/27 10:11:21;;;;;;;18.47;3.70;;;;;;;16.82;53.32;102331.09;6182120;23;20374;-64
2022/05/27 10:13:48;;;;;;;19.17;3.55;;;;;;;17.11;52.17;102323.88;6179428;23;20032;-67
2022/05/27 10:16:25;;;;;;;18.85;4.07;;;;;;;17.45;51.96;102328.84;6180469;23;20001;-62
2022/05/27 10:19:22;;;;;;;21.67;3.85;;;;;;;17.38;51.93;102329.06;6149923;23;20438;-59
2022/05/27 10:22:00;;;;;;;26.08;4.10;;;;;;;17.30;53.00;102337.34;6176632;23;20009;-61
2022/05/27 10:24:29;;;;;;;20.60;4.53;;;;;;;17.26;53.18;102334.84;6174808;23;20051;-61
2022/05/27 10:27:06;;;;;;;17.52;3.95;;;;;;;17.49;53.58;102336.63;6174288;23;20036;-61
2022/05/27 10:29:34;;;;;;;18.10;3.88;;;;;;;17.66;51.45;102341.28;6177499;23;20001;-61
2022/05/27 10:32:01;;;;;;;16.13;3.25;;;;;;;17.61;50.75;102348.59;6175265;23;20009;-60
2022/05/27 10:34:45;;;;;;;16.38;3.47;;;;;;;17.71;48.99;102340.22;6177784;23;20005;-67
2022/05/27 10:37:48;;;;;;;15.43;3.00;;;;;;;17.24;45.36;102389.97;6176266;23;20033;-63
2022/05/27 10:40:22;;;;;;;11.55;2.58;;;;;;;16.96;42.30;102373.22;6180310;23;20009;-64
2022/05/27 10:43:06;;;;;;;13.57;3.00;;;;;;;16.97;45.06;102356.31;6178500;23;20051;-60
2022/05/27 10:45:34;;;;;;;14.02;2.75;;;;;;;17.09;46.04;102373.66;6179331;23;20075;-59
2022/05/27 10:48:11;;;;;;;16.27;2.78;;;;;;;16.98;46.00;102373.16;6178198;23;20032;-62
2022/05/27 10:50:43;;;;;;;13.88;2.88;;;;;;;17.06;46.58;102357.75;6177844;23;20013;-60
2022/05/27 10:53:25;;;;;;;14.13;3.08;;;;;;;16.90;46.58;102366.31;6178012;23;20080;-65
2022/05/27 10:56:11;;;;;;;12.77;2.58;;;;;;;16.72;45.29;102378.50;6152061;23;20005;-60
2022/05/27 11:04:31;;;;;;;14.70;2.65;;;;;;;17.24;46.59;102388.19;6178599;23;20086;-62
2022/05/27 11:07:11;;;;;;;16.50;3.20;;;;;;;17.34;45.89;102372.72;6175560;23;20084;-61
2022/05/27 11:09:59;;;;;;;15.05;2.95;;;;;;;17.39;47.00;102378.75;6152953;23;20016;-61
2022/05/27 11:16:19;;;;;;;11.75;2.80;;;;;;;17.44;43.93;102373.25;6180581;23;20405;-64
2022/05/27 11:19:22;;;;;;;13.35;2.70;;;;;;;17.14;43.39;102374.38;6168450;23;20377;-61
2022/05/27 11:22:03;;;;;;;12.20;2.50;;;;;;;17.58;42.83;102390.50;6180148;23;20016;-62
2022/05/27 11:24:58;;;;;;;11.27;2.25;;;;;;;17.58;44.57;102393.16;6154527;23;20005;-62
2022/05/27 11:27:36;;;;;;;12.90;2.38;;;;;;;17.71;43.54;102393.53;6178143;23;20067;-60
2022/05/27 11:30:19;;;;;;;12.07;2.25;;;;;;;17.69;42.36;102380.28;6175876;23;20040;-61
2022/05/27 11:32:55;;;;;;;16.40;3.03;;;;;;;17.65;44.01;102379.53;6153446;23;20001;-62
2022/05/27 11:35:50;;;;;;;17.13;3.00;;;;;;;17.78;44.67;102389.69;6152222;23;20001;-61
2022/05/27 11:38:33;;;;;;;11.18;2.70;;;;;;;17.95;43.80;102391.69;6177855;23;20015;-60
2022/05/27 11:41:13;;;;;;;12.98;3.05;;;;;;;18.20;42.88;102396.06;6178725;23;20426;-60
2022/05/27 11:43:44;;;;;;;11.43;2.63;;;;;;;18.28;43.52;102398.41;6180635;23;20005;-62
2022/05/27 11:46:31;;;;;;;15.30;2.83;;;;;;;18.21;43.91;102387.09;6153619;23;20005;-63
2022/05/27 11:48:59;;;;;;;17.63;2.78;;;;;;;18.33;43.69;102392.88;6177813;23;20009;-62
2022/05/27 11:51:55;;;;;;;14.13;3.40;;;;;;;17.87;44.65;102400.00;6179793;23;20086;-61
2022/05/27 11:54:36;;;;;;;12.48;2.92;;;;;;;17.70;43.91;102400.66;6179938;23;20240;-63
2022/05/27 11:57:05;;;;;;;11.52;2.30;;;;;;;17.65;42.72;102384.00;6178765;23;20446;-62
2022/05/27 11:59:33;;;;;;;10.10;2.53;;;;;;;17.93;42.36;102383.75;6179396;23;20024;-61
2022/05/27 12:02:13;;;;;;;17.13;2.90;;;;;;;17.78;43.42;102413.69;6180624;23;20011;-62
2022/05/27 12:04:46;;;;;;;14.00;2.55;;;;;;;18.04;43.79;102394.00;6179018;23;20005;-63
2022/05/27 12:07:20;;;;;;;19.90;2.92;;;;;;;18.10;43.63;102390.25;6176226;23;20080;-62
2022/05/27 12:10:13;;;;;;;9.88;2.30;;;;;;;18.01;42.07;102391.47;6177653;23;20063;-61
2022/05/27 12:12:53;;;;;;;16.77;2.90;;;;;;;17.75;44.87;102405.81;6179481;23;20009;-63
2022/05/27 12:15:26;;;;;;;14.98;2.47;;;;;;;18.02;44.39;102416.31;6176127;23;20008;-64